sensor_id;sensor_type;location;lat;lon;timestamp;pressure;altitude;pressure_sealevel;temperature;humidity
7407;BME280;3745;56.964;24.128;2024-02-26T00:01:41;100936.41;;;5.28;100.00
7407;BME280;3745;56.964;24.128;2024-02-26T00:04:09;100935.84;;;5.35;100.00
7407;BME280;3745;56.964;24.128;2024-02-26T00:06:35;100930.13;;;5.39;100.00
7407;BME280;3745;56.964;24.128;2024-02-26T00:09:00;100931.75;;;5.37;100.00
7407;BME280;3745;56.964;24.128;2024-02-26T00:11:28;100887.53;;;5.17;100.00
7407;BME280;3745;56.964;24.128;2024-02-26T00:13:53;100921.38;;;5.28;100.00
7407;BME280;3745;56.964;24.128;2024-02-26T00:16:19;100919.19;;;5.37;100.00
7407;BME280;3745;56.964;24.128;2024-02-26T00:18:44;100817.44;;;4.75;100.00
7407;BME280;3745;56.964;24.128;2024-02-26T00:21:10;100870.53;;;5.10;100.00
7407;BME280;3745;56.964;24.128;2024-02-26T00:23:35;100911.44;;;5.31;100.00
7407;BME280;3745;56.964;24.128;2024-02-26T00:26:01;100833.06;;;4.90;100.00
7407;BME280;3745;56.964;24.128;2024-02-26T00:28:27;100805.94;;;4.80;100.00
7407;BME280;3745;56.964;24.128;2024-02-26T00:30:54;100873.50;;;5.22;100.00
7407;BME280;3745;56.964;24.128;2024-02-26T00:33:22;100790.78;;;4.77;100.00
7407;BME280;3745;56.964;24.128;2024-02-26T00:35:48;100895.00;;;5.39;100.00
7407;BME280;3745;56.964;24.128;2024-02-26T00:38:14;100889.97;;;5.39;100.00
7407;BME280;3745;56.964;24.128;2024-02-26T00:40:39;100858.25;;;5.17;100.00
7407;BME280;3745;56.964;24.128;2024-02-26T00:43:06;100891.81;;;5.43;100.00
7407;BME280;3745;56.964;24.128;2024-02-26T00:45:32;100735.56;;;4.52;100.00
7407;BME280;3745;56.964;24.128;2024-02-26T00:47:58;100785.47;;;4.92;100.00
7407;BME280;3745;56.964;24.128;2024-02-26T00:50:26;100876.75;;;5.43;100.00
7407;BME280;3745;56.964;24.128;2024-02-26T00:52:52;100877.06;;;5.52;100.00
7407;BME280;3745;56.964;24.128;2024-02-26T00:55:18;100873.44;;;5.44;100.00
7407;BME280;3745;56.964;24.128;2024-02-26T00:57:43;100867.72;;;5.48;100.00
7407;BME280;3745;56.964;24.128;2024-02-26T01:00:09;100874.47;;;5.49;100.00
7407;BME280;3745;56.964;24.128;2024-02-26T01:02:35;100841.09;;;5.28;100.00
7407;BME280;3745;56.964;24.128;2024-02-26T01:05:01;100854.84;;;5.39;100.00
7407;BME280;3745;56.964;24.128;2024-02-26T01:07:28;100867.03;;;5.52;100.00
7407;BME280;3745;56.964;24.128;2024-02-26T01:09:53;100839.69;;;5.36;100.00
7407;BME280;3745;56.964;24.128;2024-02-26T01:12:19;100855.38;;;5.54;100.00
7407;BME280;3745;56.964;24.128;2024-02-26T01:14:44;100812.59;;;5.26;100.00
7407;BME280;3745;56.964;24.128;2024-02-26T01:17:10;100771.81;;;5.08;100.00
7407;BME280;3745;56.964;24.128;2024-02-26T01:19:35;100834.38;;;5.51;100.00
7407;BME280;3745;56.964;24.128;2024-02-26T01:22:01;100841.94;;;5.52;100.00
7407;BME280;3745;56.964;24.128;2024-02-26T01:24:26;100837.88;;;5.56;100.00
7407;BME280;3745;56.964;24.128;2024-02-26T01:26:52;100811.50;;;5.43;100.00
7407;BME280;3745;56.964;24.128;2024-02-26T01:29:18;100802.25;;;5.42;100.00
7407;BME280;3745;56.964;24.128;2024-02-26T01:31:43;100822.44;;;5.45;100.00
7407;BME280;3745;56.964;24.128;2024-02-26T01:34:09;100774.16;;;5.27;100.00
7407;BME280;3745;56.964;24.128;2024-02-26T01:36:34;100792.84;;;5.35;100.00
7407;BME280;3745;56.964;24.128;2024-02-26T01:39:00;100849.41;;;5.74;100.00
7407;BME280;3745;56.964;24.128;2024-02-26T01:41:25;100734.69;;;4.98;100.00
7407;BME280;3745;56.964;24.128;2024-02-26T01:43:57;100862.31;;;5.61;100.00
7407;BME280;3745;56.964;24.128;2024-02-26T01:46:28;100830.38;;;5.57;100.00
7407;BME280;3745;56.964;24.128;2024-02-26T01:48:55;100850.88;;;5.69;100.00
7407;BME280;3745;56.964;24.128;2024-02-26T01:51:21;100825.06;;;5.48;100.00
7407;BME280;3745;56.964;24.128;2024-02-26T01:53:49;100796.25;;;5.37;100.00
7407;BME280;3745;56.964;24.128;2024-02-26T01:56:17;100837.44;;;5.67;100.00
7407;BME280;3745;56.964;24.128;2024-02-26T01:58:45;100819.38;;;5.77;100.00
7407;BME280;3745;56.964;24.128;2024-02-26T02:01:11;100818.13;;;5.66;100.00
7407;BME280;3745;56.964;24.128;2024-02-26T02:03:37;100815.22;;;5.54;100.00
7407;BME280;3745;56.964;24.128;2024-02-26T02:06:04;100812.81;;;5.57;100.00
7407;BME280;3745;56.964;24.128;2024-02-26T02:08:30;100805.06;;;5.51;100.00
7407;BME280;3745;56.964;24.128;2024-02-26T02:10:56;100809.78;;;5.42;100.00
7407;BME280;3745;56.964;24.128;2024-02-26T02:13:22;100796.03;;;5.31;100.00
7407;BME280;3745;56.964;24.128;2024-02-26T02:15:47;100793.53;;;5.31;100.00
7407;BME280;3745;56.964;24.128;2024-02-26T02:18:13;100812.19;;;5.39;100.00
7407;BME280;3745;56.964;24.128;2024-02-26T02:20:38;100780.47;;;5.16;100.00
7407;BME280;3745;56.964;24.128;2024-02-26T02:23:04;100805.09;;;5.27;100.00
7407;BME280;3745;56.964;24.128;2024-02-26T02:25:30;100828.19;;;5.41;100.00
7407;BME280;3745;56.964;24.128;2024-02-26T02:27:56;100831.47;;;5.40;100.00
7407;BME280;3745;56.964;24.128;2024-02-26T02:30:25;100734.38;;;4.88;100.00
7407;BME280;3745;56.964;24.128;2024-02-26T02:32:52;100735.22;;;4.89;100.00
7407;BME280;3745;56.964;24.128;2024-02-26T02:35:18;100758.47;;;5.09;100.00
7407;BME280;3745;56.964;24.128;2024-02-26T02:37:44;100797.66;;;5.29;100.00
7407;BME280;3745;56.964;24.128;2024-02-26T02:40:09;100814.81;;;5.42;100.00
7407;BME280;3745;56.964;24.128;2024-02-26T02:42:35;100768.81;;;5.18;100.00
7407;BME280;3745;56.964;24.128;2024-02-26T02:45:01;100810.31;;;5.57;100.00
7407;BME280;3745;56.964;24.128;2024-02-26T02:47:26;100767.00;;;5.37;100.00
7407;BME280;3745;56.964;24.128;2024-02-26T02:49:52;100717.34;;;5.04;100.00
7407;BME280;3745;56.964;24.128;2024-02-26T02:52:17;100778.41;;;5.53;100.00
7407;BME280;3745;56.964;24.128;2024-02-26T02:54:43;100747.97;;;5.44;100.00
7407;BME280;3745;56.964;24.128;2024-02-26T02:57:09;100770.16;;;5.57;100.00
7407;BME280;3745;56.964;24.128;2024-02-26T02:59:36;100778.09;;;5.44;100.00
7407;BME280;3745;56.964;24.128;2024-02-26T03:02:01;100781.28;;;5.40;100.00
7407;BME280;3745;56.964;24.128;2024-02-26T03:04:27;100783.22;;;5.47;100.00
7407;BME280;3745;56.964;24.128;2024-02-26T03:06:52;100791.63;;;5.49;100.00
7407;BME280;3745;56.964;24.128;2024-02-26T03:09:18;100793.34;;;5.50;100.00
7407;BME280;3745;56.964;24.128;2024-02-26T03:11:44;100720.16;;;5.13;100.00
7407;BME280;3745;56.964;24.128;2024-02-26T03:14:09;100745.88;;;5.31;100.00
7407;BME280;3745;56.964;24.128;2024-02-26T03:16:35;100803.81;;;5.62;100.00
7407;BME280;3745;56.964;24.128;2024-02-26T03:19:01;100765.53;;;5.44;100.00
7407;BME280;3745;56.964;24.128;2024-02-26T03:21:28;100809.78;;;5.66;100.00
7407;BME280;3745;56.964;24.128;2024-02-26T03:23:54;100812.31;;;5.67;100.00
7407;BME280;3745;56.964;24.128;2024-02-26T03:26:19;100817.34;;;5.67;100.00
7407;BME280;3745;56.964;24.128;2024-02-26T03:28:45;100827.50;;;5.70;100.00
7407;BME280;3745;56.964;24.128;2024-02-26T03:31:10;100763.53;;;5.34;100.00
7407;BME280;3745;56.964;24.128;2024-02-26T03:33:36;100771.25;;;5.40;100.00
7407;BME280;3745;56.964;24.128;2024-02-26T03:36:02;100804.78;;;5.67;100.00
7407;BME280;3745;56.964;24.128;2024-02-26T03:38:29;100806.94;;;5.82;100.00
7407;BME280;3745;56.964;24.128;2024-02-26T03:40:54;100822.09;;;5.85;100.00
7407;BME280;3745;56.964;24.128;2024-02-26T03:43:20;100815.31;;;5.81;100.00
7407;BME280;3745;56.964;24.128;2024-02-26T03:45:45;100812.44;;;5.70;100.00
7407;BME280;3745;56.964;24.128;2024-02-26T03:48:11;100811.88;;;5.79;100.00
7407;BME280;3745;56.964;24.128;2024-02-26T03:50:36;100780.59;;;5.69;100.00
7407;BME280;3745;56.964;24.128;2024-02-26T03:53:02;100757.00;;;5.64;100.00
7407;BME280;3745;56.964;24.128;2024-02-26T03:55:29;100769.81;;;5.72;100.00
7407;BME280;3745;56.964;24.128;2024-02-26T03:57:54;100762.31;;;5.73;100.00
7407;BME280;3745;56.964;24.128;2024-02-26T04:00:20;100777.81;;;5.85;100.00
7407;BME280;3745;56.964;24.128;2024-02-26T04:02:49;100783.84;;;5.90;100.00
7407;BME280;3745;56.964;24.128;2024-02-26T04:05:14;100781.44;;;5.93;100.00
7407;BME280;3745;56.964;24.128;2024-02-26T04:07:40;100784.53;;;5.86;100.00
7407;BME280;3745;56.964;24.128;2024-02-26T04:10:12;100786.34;;;5.90;100.00
7407;BME280;3745;56.964;24.128;2024-02-26T04:12:42;100797.97;;;5.88;100.00
7407;BME280;3745;56.964;24.128;2024-02-26T04:15:08;100782.81;;;5.85;100.00
7407;BME280;3745;56.964;24.128;2024-02-26T04:17:34;100772.06;;;5.89;100.00
7407;BME280;3745;56.964;24.128;2024-02-26T04:20:00;100791.94;;;6.09;100.00
7407;BME280;3745;56.964;24.128;2024-02-26T04:22:26;100785.22;;;6.08;100.00
7407;BME280;3745;56.964;24.128;2024-02-26T04:24:51;100752.09;;;5.92;100.00
7407;BME280;3745;56.964;24.128;2024-02-26T04:27:17;100773.63;;;6.13;100.00
7407;BME280;3745;56.964;24.128;2024-02-26T04:29:42;100751.38;;;5.96;100.00
7407;BME280;3745;56.964;24.128;2024-02-26T04:32:08;100725.75;;;5.81;100.00
7407;BME280;3745;56.964;24.128;2024-02-26T04:34:33;100690.78;;;5.61;100.00
7407;BME280;3745;56.964;24.128;2024-02-26T04:36:59;100792.13;;;6.15;100.00
7407;BME280;3745;56.964;24.128;2024-02-26T04:39:25;100755.94;;;6.08;100.00
7407;BME280;3745;56.964;24.128;2024-02-26T04:41:51;100729.56;;;5.95;100.00
7407;BME280;3745;56.964;24.128;2024-02-26T04:44:16;100770.78;;;6.29;100.00
7407;BME280;3745;56.964;24.128;2024-02-26T04:46:42;100756.66;;;6.32;100.00
7407;BME280;3745;56.964;24.128;2024-02-26T04:49:07;100743.84;;;6.25;100.00
7407;BME280;3745;56.964;24.128;2024-02-26T04:51:33;100737.41;;;6.33;100.00
7407;BME280;3745;56.964;24.128;2024-02-26T04:53:59;100710.97;;;6.17;100.00
7407;BME280;3745;56.964;24.128;2024-02-26T04:56:25;100744.22;;;6.37;100.00
7407;BME280;3745;56.964;24.128;2024-02-26T04:58:50;100726.31;;;6.26;100.00
7407;BME280;3745;56.964;24.128;2024-02-26T05:01:17;100750.94;;;6.38;100.00
7407;BME280;3745;56.964;24.128;2024-02-26T05:03:44;100742.44;;;6.33;100.00
7407;BME280;3745;56.964;24.128;2024-02-26T05:06:09;100668.91;;;5.83;100.00
7407;BME280;3745;56.964;24.128;2024-02-26T05:08:35;100733.53;;;6.16;100.00
7407;BME280;3745;56.964;24.128;2024-02-26T05:11:02;100750.41;;;6.20;100.00
7407;BME280;3745;56.964;24.128;2024-02-26T05:13:29;100769.25;;;6.34;100.00
7407;BME280;3745;56.964;24.128;2024-02-26T05:15:55;100769.34;;;6.37;100.00
7407;BME280;3745;56.964;24.128;2024-02-26T05:18:21;100753.91;;;6.25;100.00
7407;BME280;3745;56.964;24.128;2024-02-26T05:20:47;100770.19;;;6.37;100.00
7407;BME280;3745;56.964;24.128;2024-02-26T05:23:12;100761.09;;;6.41;100.00
7407;BME280;3745;56.964;24.128;2024-02-26T05:25:38;100734.97;;;6.36;100.00
7407;BME280;3745;56.964;24.128;2024-02-26T05:28:04;100765.53;;;6.49;100.00
7407;BME280;3745;56.964;24.128;2024-02-26T05:30:29;100708.22;;;6.10;100.00
7407;BME280;3745;56.964;24.128;2024-02-26T05:32:55;100778.06;;;6.48;100.00
7407;BME280;3745;56.964;24.128;2024-02-26T05:35:21;100751.91;;;6.41;100.00
7407;BME280;3745;56.964;24.128;2024-02-26T05:37:46;100763.06;;;6.51;100.00
7407;BME280;3745;56.964;24.128;2024-02-26T05:40:12;100758.75;;;6.47;100.00
7407;BME280;3745;56.964;24.128;2024-02-26T05:42:38;100703.97;;;6.07;100.00
7407;BME280;3745;56.964;24.128;2024-02-26T05:45:04;100790.00;;;6.55;100.00
7407;BME280;3745;56.964;24.128;2024-02-26T05:47:34;100799.25;;;6.56;100.00
7407;BME280;3745;56.964;24.128;2024-02-26T05:50:00;100767.56;;;6.33;100.00
7407;BME280;3745;56.964;24.128;2024-02-26T05:52:27;100768.97;;;6.25;100.00
7407;BME280;3745;56.964;24.128;2024-02-26T05:54:53;100783.00;;;6.45;100.00
7407;BME280;3745;56.964;24.128;2024-02-26T05:57:19;100743.84;;;6.25;100.00
7407;BME280;3745;56.964;24.128;2024-02-26T05:59:45;100805.38;;;6.64;100.00
7407;BME280;3745;56.964;24.128;2024-02-26T06:02:10;100796.63;;;6.53;100.00
7407;BME280;3745;56.964;24.128;2024-02-26T06:04:36;100750.94;;;6.38;100.00
7407;BME280;3745;56.964;24.128;2024-02-26T06:07:02;100815.59;;;6.70;100.00
7407;BME280;3745;56.964;24.128;2024-02-26T06:09:27;100802.03;;;6.65;100.00
7407;BME280;3745;56.964;24.128;2024-02-26T06:11:53;100785.91;;;6.59;100.00
7407;BME280;3745;56.964;24.128;2024-02-26T06:14:19;100822.41;;;6.74;100.00
7407;BME280;3745;56.964;24.128;2024-02-26T06:16:46;100778.25;;;6.54;100.00
7407;BME280;3745;56.964;24.128;2024-02-26T06:19:11;100791.78;;;6.59;100.00
7407;BME280;3745;56.964;24.128;2024-02-26T06:21:37;100817.81;;;6.89;100.00
7407;BME280;3745;56.964;24.128;2024-02-26T06:24:03;100736.66;;;6.37;100.00
7407;BME280;3745;56.964;24.128;2024-02-26T06:26:28;100799.31;;;6.87;100.00
7407;BME280;3745;56.964;24.128;2024-02-26T06:28:55;100766.81;;;6.65;100.00
7407;BME280;3745;56.964;24.128;2024-02-26T06:31:21;100726.91;;;6.46;100.00
7407;BME280;3745;56.964;24.128;2024-02-26T06:33:48;100770.38;;;6.72;100.00
7407;BME280;3745;56.964;24.128;2024-02-26T06:36:15;100815.78;;;7.06;100.00
7407;BME280;3745;56.964;24.128;2024-02-26T06:38:43;100780.66;;;6.79;100.00
7407;BME280;3745;56.964;24.128;2024-02-26T06:41:10;100790.97;;;6.88;100.00
7407;BME280;3745;56.964;24.128;2024-02-26T06:43:37;100752.66;;;6.67;100.00
7407;BME280;3745;56.964;24.128;2024-02-26T06:46:03;100826.94;;;7.16;100.00
7407;BME280;3745;56.964;24.128;2024-02-26T06:48:31;100819.16;;;7.08;100.00
7407;BME280;3745;56.964;24.128;2024-02-26T06:50:57;100815.56;;;6.98;100.00
7407;BME280;3745;56.964;24.128;2024-02-26T06:53:23;100792.41;;;6.80;100.00
7407;BME280;3745;56.964;24.128;2024-02-26T06:55:48;100824.97;;;7.05;100.00
7407;BME280;3745;56.964;24.128;2024-02-26T06:58:16;100647.66;;;6.00;100.00
7407;BME280;3745;56.964;24.128;2024-02-26T07:00:42;100828.59;;;7.14;100.00
7407;BME280;3745;56.964;24.128;2024-02-26T07:03:07;100831.09;;;7.14;100.00
7407;BME280;3745;56.964;24.128;2024-02-26T07:05:33;100821.91;;;7.16;100.00
7407;BME280;3745;56.964;24.128;2024-02-26T07:07:59;100775.88;;;6.88;100.00
7407;BME280;3745;56.964;24.128;2024-02-26T07:10:24;100825.22;;;7.15;100.00
7407;BME280;3745;56.964;24.128;2024-02-26T07:12:50;100690.53;;;6.35;100.00
7407;BME280;3745;56.964;24.128;2024-02-26T07:15:16;100670.19;;;6.26;100.00
7407;BME280;3745;56.964;24.128;2024-02-26T07:17:41;100811.53;;;7.03;100.00
7407;BME280;3745;56.964;24.128;2024-02-26T07:20:12;100810.75;;;7.06;100.00
7407;BME280;3745;56.964;24.128;2024-02-26T07:22:37;100785.84;;;6.85;100.00
7407;BME280;3745;56.964;24.128;2024-02-26T07:25:03;100830.19;;;7.12;100.00
7407;BME280;3745;56.964;24.128;2024-02-26T07:27:33;100768.97;;;6.81;100.00
7407;BME280;3745;56.964;24.128;2024-02-26T07:29:59;100751.91;;;6.71;100.00
7407;BME280;3745;56.964;24.128;2024-02-26T07:32:25;100834.78;;;7.26;100.00
7407;BME280;3745;56.964;24.128;2024-02-26T07:34:50;100845.63;;;7.24;100.00
7407;BME280;3745;56.964;24.128;2024-02-26T07:37:16;100843.97;;;7.24;100.00
7407;BME280;3745;56.964;24.128;2024-02-26T07:39:41;100838.81;;;7.20;100.00
7407;BME280;3745;56.964;24.128;2024-02-26T07:42:07;100820.13;;;7.12;100.00
7407;BME280;3745;56.964;24.128;2024-02-26T07:44:33;100677.19;;;6.36;100.00
7407;BME280;3745;56.964;24.128;2024-02-26T07:46:58;100842.63;;;7.37;100.00
7407;BME280;3745;56.964;24.128;2024-02-26T07:49:24;100765.22;;;6.98;100.00
7407;BME280;3745;56.964;24.128;2024-02-26T07:51:49;100779.84;;;7.12;100.00
7407;BME280;3745;56.964;24.128;2024-02-26T07:54:15;100803.81;;;7.29;100.00
7407;BME280;3745;56.964;24.128;2024-02-26T07:56:41;100728.00;;;6.85;100.00
7407;BME280;3745;56.964;24.128;2024-02-26T07:59:08;100807.94;;;7.27;100.00
7407;BME280;3745;56.964;24.128;2024-02-26T08:01:35;100799.28;;;7.17;100.00
7407;BME280;3745;56.964;24.128;2024-02-26T08:04:00;100854.75;;;7.50;100.00
7407;BME280;3745;56.964;24.128;2024-02-26T08:06:26;100781.31;;;7.03;100.00
7407;BME280;3745;56.964;24.128;2024-02-26T08:08:52;100820.63;;;7.30;100.00
7407;BME280;3745;56.964;24.128;2024-02-26T08:11:18;100846.28;;;7.48;100.00
7407;BME280;3745;56.964;24.128;2024-02-26T08:13:43;100861.69;;;7.60;100.00
7407;BME280;3745;56.964;24.128;2024-02-26T08:16:09;100856.66;;;7.60;100.00
7407;BME280;3745;56.964;24.128;2024-02-26T08:18:34;100829.47;;;7.47;100.00
7407;BME280;3745;56.964;24.128;2024-02-26T08:21:03;100793.84;;;7.32;100.00
7407;BME280;3745;56.964;24.128;2024-02-26T08:23:28;100860.41;;;7.74;100.00
7407;BME280;3745;56.964;24.128;2024-02-26T08:26:03;100857.25;;;7.81;100.00
7407;BME280;3745;56.964;24.128;2024-02-26T08:28:32;100869.16;;;7.88;100.00
7407;BME280;3745;56.964;24.128;2024-02-26T08:30:58;100804.53;;;7.56;100.00
7407;BME280;3745;56.964;24.128;2024-02-26T08:33:23;100860.88;;;7.92;100.00
7407;BME280;3745;56.964;24.128;2024-02-26T08:35:49;100864.19;;;7.91;100.00
7407;BME280;3745;56.964;24.128;2024-02-26T08:38:14;100818.78;;;7.55;100.00
7407;BME280;3745;56.964;24.128;2024-02-26T08:40:40;100865.69;;;7.83;100.00
7407;BME280;3745;56.964;24.128;2024-02-26T08:43:05;100806.13;;;7.54;100.00
7407;BME280;3745;56.964;24.128;2024-02-26T08:45:31;100866.78;;;7.94;100.00
7407;BME280;3745;56.964;24.128;2024-02-26T08:47:57;100802.03;;;7.56;100.00
7407;BME280;3745;56.964;24.128;2024-02-26T08:50:24;100872.97;;;8.05;100.00
7407;BME280;3745;56.964;24.128;2024-02-26T08:52:50;100872.25;;;8.11;100.00
7407;BME280;3745;56.964;24.128;2024-02-26T08:55:16;100835.97;;;8.04;100.00
7407;BME280;3745;56.964;24.128;2024-02-26T08:57:42;100759.28;;;7.59;100.00
7407;BME280;3745;56.964;24.128;2024-02-26T09:00:10;100873.25;;;8.17;100.00
7407;BME280;3745;56.964;24.128;2024-02-26T09:02:36;100672.38;;;7.06;100.00
7407;BME280;3745;56.964;24.128;2024-02-26T09:05:05;100821.63;;;8.02;100.00
7407;BME280;3745;56.964;24.128;2024-02-26T09:07:33;100792.56;;;7.82;100.00
7407;BME280;3745;56.964;24.128;2024-02-26T09:09:59;100836.78;;;8.03;100.00
7407;BME280;3745;56.964;24.128;2024-02-26T09:12:25;100877.97;;;8.38;100.00
7407;BME280;3745;56.964;24.128;2024-02-26T09:14:51;100877.97;;;8.38;100.00
7407;BME280;3745;56.964;24.128;2024-02-26T09:17:19;100791.81;;;7.84;100.00
7407;BME280;3745;56.964;24.128;2024-02-26T09:19:47;100684.47;;;7.21;100.00
7407;BME280;3745;56.964;24.128;2024-02-26T09:22:13;100843.81;;;8.16;100.00
7407;BME280;3745;56.964;24.128;2024-02-26T09:24:39;100790.09;;;7.83;100.00
7407;BME280;3745;56.964;24.128;2024-02-26T09:27:04;100902.75;;;8.56;100.00
7407;BME280;3745;56.964;24.128;2024-02-26T09:29:30;100851.69;;;8.29;100.00
7407;BME280;3745;56.964;24.128;2024-02-26T09:31:55;100862.06;;;8.41;100.00
7407;BME280;3745;56.964;24.128;2024-02-26T09:34:21;100873.72;;;8.36;100.00
7407;BME280;3745;56.964;24.128;2024-02-26T09:36:47;100870.47;;;8.40;100.00
7407;BME280;3745;56.964;24.128;2024-02-26T09:39:12;100903.75;;;8.62;100.00
7407;BME280;3745;56.964;24.128;2024-02-26T09:41:40;100908.09;;;8.68;100.00
7407;BME280;3745;56.964;24.128;2024-02-26T09:44:06;100753.25;;;7.88;100.00
7407;BME280;3745;56.964;24.128;2024-02-26T09:46:31;100772.28;;;8.11;100.00
7407;BME280;3745;56.964;24.128;2024-02-26T09:48:58;100880.59;;;8.79;100.00
7407;BME280;3745;56.964;24.128;2024-02-26T09:51:23;100908.06;;;9.04;100.00
7407;BME280;3745;56.964;24.128;2024-02-26T09:54:00;100908.97;;;9.07;100.00
7407;BME280;3745;56.964;24.128;2024-02-26T09:56:29;100776.06;;;8.29;100.00
7407;BME280;3745;56.964;24.128;2024-02-26T09:59:01;100911.44;;;9.04;100.00
7407;BME280;3745;56.964;24.128;2024-02-26T10:01:29;100799.69;;;8.34;100.00
7407;BME280;3745;56.964;24.128;2024-02-26T10:03:59;100833.78;;;8.54;100.00
7407;BME280;3745;56.964;24.128;2024-02-26T10:06:28;100790.09;;;8.19;100.00
7407;BME280;3745;56.964;24.128;2024-02-26T10:08:57;100871.16;;;8.70;100.00
7407;BME280;3745;56.964;24.128;2024-02-26T10:11:25;100924.66;;;8.94;100.00
7407;BME280;3745;56.964;24.128;2024-02-26T10:13:52;100922.09;;;8.91;100.00
7407;BME280;3745;56.964;24.128;2024-02-26T10:16:17;100845.31;;;8.43;100.00
7407;BME280;3745;56.964;24.128;2024-02-26T10:18:50;100930.41;;;8.87;100.00
7407;BME280;3745;56.964;24.128;2024-02-26T10:21:17;100930.41;;;8.87;100.00
7407;BME280;3745;56.964;24.128;2024-02-26T10:23:44;100922.81;;;8.87;100.00
7407;BME280;3745;56.964;24.128;2024-02-26T10:26:12;100939.09;;;9.01;100.00
7407;BME280;3745;56.964;24.128;2024-02-26T10:28:39;100902.50;;;8.81;100.00
7407;BME280;3745;56.964;24.128;2024-02-26T10:31:05;100927.25;;;8.97;100.00
7407;BME280;3745;56.964;24.128;2024-02-26T10:33:33;100911.59;;;8.73;100.00
7407;BME280;3745;56.964;24.128;2024-02-26T10:36:02;100862.34;;;8.53;100.00
7407;BME280;3745;56.964;24.128;2024-02-26T10:38:29;100903.38;;;8.83;100.00
7407;BME280;3745;56.964;24.128;2024-02-26T10:40:55;100828.41;;;8.39;100.00
7407;BME280;3745;56.964;24.128;2024-02-26T10:43:21;100922.00;;;8.88;100.00
7407;BME280;3745;56.964;24.128;2024-02-26T10:45:47;100915.13;;;8.81;100.00
7407;BME280;3745;56.964;24.128;2024-02-26T10:48:15;100929.09;;;9.04;100.00
7407;BME280;3745;56.964;24.128;2024-02-26T10:50:43;100894.06;;;8.81;100.00
7407;BME280;3745;56.964;24.128;2024-02-26T10:53:29;100912.06;;;8.94;100.00
7407;BME280;3745;56.964;24.128;2024-02-26T10:56:01;100895.72;;;8.79;100.00
7407;BME280;3745;56.964;24.128;2024-02-26T10:58:40;100946.06;;;9.11;100.00
7407;BME280;3745;56.964;24.128;2024-02-26T11:01:14;100945.94;;;9.05;100.00
7407;BME280;3745;56.964;24.128;2024-02-26T11:03:41;100870.25;;;8.68;100.00
7407;BME280;3745;56.964;24.128;2024-02-26T11:06:08;100733.09;;;7.88;100.00
7407;BME280;3745;56.964;24.128;2024-02-26T11:08:36;100949.50;;;9.13;100.00
7407;BME280;3745;56.964;24.128;2024-02-26T11:11:03;100877.22;;;8.78;100.00
7407;BME280;3745;56.964;24.128;2024-02-26T11:13:30;100927.41;;;9.03;100.00
7407;BME280;3745;56.964;24.128;2024-02-26T11:15:56;100916.63;;;9.10;100.00
7407;BME280;3745;56.964;24.128;2024-02-26T11:18:26;100888.31;;;8.86;100.00
7407;BME280;3745;56.964;24.128;2024-02-26T11:20:54;100952.22;;;9.22;100.00
7407;BME280;3745;56.964;24.128;2024-02-26T11:23:23;100938.50;;;9.11;100.00
7407;BME280;3745;56.964;24.128;2024-02-26T11:25:50;100954.34;;;9.04;100.00
7407;BME280;3745;56.964;24.128;2024-02-26T11:28:19;100935.50;;;8.90;100.00
7407;BME280;3745;56.964;24.128;2024-02-26T11:30:47;100918.59;;;8.86;100.00
7407;BME280;3745;56.964;24.128;2024-02-26T11:33:15;100960.34;;;9.09;100.00
7407;BME280;3745;56.964;24.128;2024-02-26T11:35:41;100951.19;;;9.14;100.00
7407;BME280;3745;56.964;24.128;2024-02-26T11:38:07;100942.53;;;9.03;100.00
7407;BME280;3745;56.964;24.128;2024-02-26T11:40:38;100956.03;;;9.05;100.00
7407;BME280;3745;56.964;24.128;2024-02-26T11:43:07;100915.06;;;8.78;100.00
7407;BME280;3745;56.964;24.128;2024-02-26T11:48:14;100953.50;;;9.05;100.00
7407;BME280;3745;56.964;24.128;2024-02-26T11:50:42;100870.81;;;8.55;100.00
7407;BME280;3745;56.964;24.128;2024-02-26T11:53:28;100938.97;;;8.95;100.00
7407;BME280;3745;56.964;24.128;2024-02-26T11:56:21;100876.72;;;8.57;100.00
7407;BME280;3745;56.964;24.128;2024-02-26T11:58:51;100933.97;;;8.97;100.00
7407;BME280;3745;56.964;24.128;2024-02-26T12:01:38;100937.56;;;9.06;100.00
7407;BME280;3745;56.964;24.128;2024-02-26T12:04:08;100968.25;;;9.24;100.00
7407;BME280;3745;56.964;24.128;2024-02-26T12:07:02;100778.41;;;8.23;100.00
7407;BME280;3745;56.964;24.128;2024-02-26T12:09:33;100891.72;;;8.88;100.00
7407;BME280;3745;56.964;24.128;2024-02-26T12:12:04;100957.53;;;9.36;100.00
7407;BME280;3745;56.964;24.128;2024-02-26T12:14:33;100973.88;;;9.52;100.00
7407;BME280;3745;56.964;24.128;2024-02-26T12:16:59;100938.81;;;9.25;100.00
7407;BME280;3745;56.964;24.128;2024-02-26T12:19:27;100932.88;;;9.24;100.00
7407;BME280;3745;56.964;24.128;2024-02-26T12:21:53;100839.22;;;8.72;100.00
7407;BME280;3745;56.964;24.128;2024-02-26T12:24:25;100935.31;;;9.20;100.00
7407;BME280;3745;56.964;24.128;2024-02-26T12:26:50;100964.38;;;9.40;100.00
7407;BME280;3745;56.964;24.128;2024-02-26T12:29:16;100924.25;;;9.13;100.00
7407;BME280;3745;56.964;24.128;2024-02-26T12:31:42;100977.44;;;9.63;100.00
7407;BME280;3745;56.964;24.128;2024-02-26T12:34:08;100794.19;;;8.50;100.00
7407;BME280;3745;56.964;24.128;2024-02-26T12:36:36;100953.78;;;9.58;100.00
7407;BME280;3745;56.964;24.128;2024-02-26T12:39:03;100981.91;;;9.74;100.00
7407;BME280;3745;56.964;24.128;2024-02-26T12:41:32;100930.69;;;9.40;100.00
7407;BME280;3745;56.964;24.128;2024-02-26T12:43:57;100982.72;;;9.72;100.00
7407;BME280;3745;56.964;24.128;2024-02-26T12:46:24;100790.41;;;8.70;100.00
7407;BME280;3745;56.964;24.128;2024-02-26T12:48:49;100819.28;;;8.84;100.00
7407;BME280;3745;56.964;24.128;2024-02-26T12:51:16;100814.94;;;8.77;100.00
7407;BME280;3745;56.964;24.128;2024-02-26T12:53:44;100934.41;;;9.58;100.00
7407;BME280;3745;56.964;24.128;2024-02-26T12:56:10;100794.00;;;8.81;100.00
7407;BME280;3745;56.964;24.128;2024-02-26T12:58:38;100927.81;;;9.65;100.00
7407;BME280;3745;56.964;24.128;2024-02-26T13:01:05;100925.22;;;9.62;100.00